createdAt,value
2023-06-23T00:00:26.931Z,99.90
2023-06-23T00:01:29.403Z,99.90
2023-06-23T00:02:31.872Z,99.90
2023-06-23T00:03:34.366Z,99.90
2023-06-23T00:04:36.816Z,99.90
2023-06-23T00:05:39.355Z,99.90
2023-06-23T00:06:42.819Z,99.90
2023-06-23T00:07:46.869Z,99.90
2023-06-23T00:08:49.503Z,99.90
2023-06-23T00:09:52.218Z,99.90
2023-06-23T00:10:55.249Z,99.90
2023-06-23T00:11:58.172Z,99.90
2023-06-23T00:13:00.908Z,99.90
2023-06-23T00:14:03.419Z,99.90
2023-06-23T00:15:08.722Z,99.90
2023-06-23T00:16:11.660Z,99.90
2023-06-23T00:17:14.428Z,99.90
2023-06-23T00:18:17.094Z,99.90
2023-06-23T00:19:19.942Z,99.90
2023-06-23T00:20:23.317Z,99.90
2023-06-23T00:21:25.917Z,99.90
2023-06-23T00:22:29.868Z,99.90
2023-06-23T00:23:32.714Z,99.90
2023-06-23T00:24:35.054Z,99.90
2023-06-23T00:25:38.975Z,99.90
2023-06-23T00:26:42.732Z,99.90
2023-06-23T00:27:46.665Z,99.90
2023-06-23T00:28:49.773Z,99.90
2023-06-23T00:29:52.445Z,99.90
2023-06-23T00:30:55.928Z,99.90
2023-06-23T00:31:59.022Z,99.90
2023-06-23T00:33:02.982Z,99.90
2023-06-23T00:34:07.498Z,99.90
2023-06-23T00:35:10.650Z,99.90
2023-06-23T00:36:12.971Z,99.90
2023-06-23T00:37:16.574Z,99.90
2023-06-23T00:38:19.901Z,99.90
2023-06-23T00:39:23.477Z,99.90
2023-06-23T00:40:26.047Z,99.90
2023-06-23T00:41:28.673Z,99.90
2023-06-23T00:42:31.164Z,99.90
2023-06-23T00:43:33.795Z,99.90
2023-06-23T00:44:36.326Z,99.90
2023-06-23T00:45:38.784Z,99.90
2023-06-23T00:46:45.020Z,99.90
2023-06-23T00:47:47.935Z,99.90
2023-06-23T00:48:50.591Z,99.90
2023-06-23T00:49:53.053Z,99.90
2023-06-23T00:50:57.431Z,99.90
2023-06-23T00:52:03.230Z,99.90
2023-06-23T00:53:05.915Z,99.90
2023-06-23T00:54:10.196Z,99.90
2023-06-23T00:55:14.023Z,99.90
2023-06-23T00:56:18.180Z,99.90
2023-06-23T00:57:21.075Z,99.90
2023-06-23T00:58:23.495Z,99.90
2023-06-23T00:59:30.825Z,99.90
2023-06-23T01:00:33.441Z,99.90
2023-06-23T01:01:37.858Z,99.90
2023-06-23T01:02:41.549Z,99.90
2023-06-23T01:03:49.558Z,99.90
2023-06-23T01:04:52.166Z,99.90
2023-06-23T01:05:57.006Z,99.90
2023-06-23T01:07:17.106Z,99.90
2023-06-23T01:08:37.424Z,99.90
2023-06-23T01:09:47.382Z,99.90
2023-06-23T01:10:59.990Z,99.90
2023-06-23T01:12:29.944Z,99.90
2023-06-23T01:13:53.405Z,99.90
2023-06-23T01:15:16.462Z,99.90
2023-06-23T01:16:25.686Z,99.90
2023-06-23T01:17:46.560Z,99.90
2023-06-23T01:19:00.068Z,99.90
2023-06-23T01:20:30.875Z,99.90
2023-06-23T01:21:41.112Z,99.90
2023-06-23T01:23:07.789Z,99.90
2023-06-23T01:24:16.855Z,99.90
2023-06-23T01:25:37.101Z,99.90
2023-06-23T01:26:59.885Z,99.90
2023-06-23T01:28:33.676Z,99.90
2023-06-23T01:29:38.054Z,99.90
2023-06-23T01:30:45.071Z,99.90
2023-06-23T01:31:57.080Z,99.90
2023-06-23T01:33:16.194Z,99.90
2023-06-23T01:34:25.605Z,99.90
2023-06-23T01:35:33.618Z,99.90
2023-06-23T01:36:51.259Z,99.90
2023-06-23T01:38:02.163Z,99.90
2023-06-23T01:39:08.673Z,99.90
2023-06-23T01:40:15.258Z,99.90
2023-06-23T01:41:27.390Z,99.90
2023-06-23T01:42:33.979Z,99.90
2023-06-23T01:43:39.290Z,99.90
2023-06-23T01:44:47.184Z,99.90
2023-06-23T01:45:50.804Z,99.90
2023-06-23T01:46:57.200Z,99.90
2023-06-23T01:48:04.690Z,99.90
2023-06-23T01:49:15.598Z,99.90
2023-06-23T01:50:19.977Z,99.90
2023-06-23T01:51:25.690Z,99.90
2023-06-23T01:52:30.854Z,99.90
2023-06-23T01:53:34.355Z,99.90
2023-06-23T01:54:43.134Z,99.90
2023-06-23T01:55:46.044Z,99.90
2023-06-23T01:56:49.532Z,99.90
2023-06-23T01:57:53.642Z,99.90
2023-06-23T01:58:58.709Z,99.90
2023-06-23T02:00:03.380Z,99.90
2023-06-23T02:01:14.372Z,99.90
2023-06-23T02:02:18.630Z,99.90
2023-06-23T02:03:21.278Z,99.90
2023-06-23T02:04:25.192Z,99.90
2023-06-23T02:05:28.947Z,99.90
2023-06-23T02:06:34.134Z,99.90
2023-06-23T02:07:37.622Z,99.90
2023-06-23T02:08:40.928Z,99.90
2023-06-23T02:09:44.744Z,99.90
2023-06-23T02:10:46.882Z,99.90
2023-06-23T02:11:49.727Z,99.90
2023-06-23T02:12:52.730Z,99.90
2023-06-23T02:13:56.787Z,99.90
2023-06-23T02:14:59.275Z,99.90
2023-06-23T02:16:02.464Z,99.90
2023-06-23T02:17:10.945Z,99.90
2023-06-23T02:18:14.309Z,99.90
2023-06-23T02:19:18.007Z,99.90
2023-06-23T02:20:24.699Z,99.90
2023-06-23T02:21:27.891Z,99.90
2023-06-23T02:22:31.617Z,99.90
2023-06-23T02:23:35.203Z,99.90
2023-06-23T02:24:38.203Z,99.90
2023-06-23T02:25:41.005Z,99.90
2023-06-23T02:26:43.838Z,99.90
2023-06-23T02:27:47.443Z,99.90
2023-06-23T02:28:51.373Z,99.90
2023-06-23T02:29:54.729Z,99.90
2023-06-23T02:30:57.170Z,99.90
2023-06-23T02:31:59.079Z,99.90
2023-06-23T02:33:01.226Z,99.90
2023-06-23T02:34:03.256Z,99.90
2023-06-23T02:35:06.890Z,99.90
2023-06-23T02:36:10.688Z,99.90
2023-06-23T02:37:12.835Z,99.90
2023-06-23T02:38:22.580Z,99.90
2023-06-23T02:39:27.182Z,99.90
2023-06-23T02:40:32.488Z,99.90
2023-06-23T02:41:36.941Z,99.90
2023-06-23T02:42:42.778Z,99.90
2023-06-23T02:43:55.826Z,99.90
2023-06-23T02:45:04.688Z,99.90
2023-06-23T02:46:10.295Z,99.90
2023-06-23T02:47:18.274Z,99.90
2023-06-23T02:48:23.878Z,99.90
2023-06-23T02:49:30.061Z,99.90
2023-06-23T02:50:35.089Z,99.90
2023-06-23T02:51:39.036Z,99.90
2023-06-23T02:52:45.924Z,99.90
2023-06-23T02:54:03.445Z,99.90
2023-06-23T02:55:08.798Z,99.90
2023-06-23T02:56:18.277Z,99.90
2023-06-23T02:57:22.284Z,99.90
2023-06-23T02:58:27.473Z,99.90
2023-06-23T02:59:31.929Z,99.90
2023-06-23T03:00:35.263Z,99.90
2023-06-23T03:01:41.454Z,99.90
2023-06-23T03:02:44.639Z,99.90
2023-06-23T03:03:47.073Z,99.90
2023-06-23T03:04:49.584Z,99.90
2023-06-23T03:05:51.432Z,99.90
2023-06-23T03:06:53.368Z,99.90
2023-06-23T03:07:55.347Z,99.90
2023-06-23T03:08:57.188Z,99.90
2023-06-23T03:09:59.068Z,99.90
2023-06-23T03:11:00.889Z,99.90
2023-06-23T03:12:03.031Z,99.90
2023-06-23T03:13:04.864Z,99.90
2023-06-23T03:14:07.163Z,99.90
2023-06-23T03:15:09.279Z,99.90
2023-06-23T03:16:24.169Z,99.90
2023-06-23T03:17:28.262Z,99.90
2023-06-23T03:18:33.877Z,99.90
2023-06-23T03:19:45.580Z,99.90
2023-06-23T03:20:54.075Z,99.90
2023-06-23T03:22:05.791Z,99.90
2023-06-23T03:23:12.901Z,99.90
2023-06-23T03:24:15.297Z,99.90
2023-06-23T03:25:29.997Z,99.90
2023-06-23T03:26:37.332Z,99.90
2023-06-23T03:27:40.970Z,99.90
2023-06-23T03:28:44.360Z,99.90
2023-06-23T03:29:51.366Z,99.90
2023-06-23T03:31:08.272Z,99.90
2023-06-23T03:32:15.466Z,99.90
2023-06-23T03:33:25.384Z,99.90
2023-06-23T03:34:35.411Z,99.90
2023-06-23T03:35:43.801Z,99.90
2023-06-23T03:36:47.216Z,99.90
2023-06-23T03:37:53.586Z,99.90
2023-06-23T03:39:02.935Z,99.90
2023-06-23T03:40:09.972Z,99.90
2023-06-23T03:41:12.979Z,99.90
2023-06-23T03:42:15.147Z,99.90
2023-06-23T03:43:24.356Z,99.90
2023-06-23T03:44:31.501Z,99.90
2023-06-23T03:45:35.859Z,99.90
2023-06-23T03:46:52.039Z,99.90
2023-06-23T03:48:01.836Z,99.90
2023-06-23T03:49:07.288Z,99.90
2023-06-23T03:50:14.839Z,99.90
2023-06-23T03:51:20.520Z,99.90
2023-06-23T03:52:24.836Z,99.90
2023-06-23T03:53:30.042Z,99.90
2023-06-23T03:54:34.061Z,99.90
2023-06-23T03:55:37.810Z,99.90
2023-06-23T03:56:40.207Z,99.90
2023-06-23T03:57:43.926Z,99.90
2023-06-23T03:58:48.492Z,99.90
2023-06-23T03:59:51.735Z,99.90
2023-06-23T04:00:56.640Z,99.90
2023-06-23T04:01:59.317Z,99.90
2023-06-23T04:03:04.908Z,99.90
2023-06-23T04:04:09.424Z,99.90
2023-06-23T04:05:14.261Z,99.90
2023-06-23T04:06:17.515Z,99.90
2023-06-23T04:07:21.189Z,99.90
2023-06-23T04:08:23.758Z,99.90
2023-06-23T04:09:27.222Z,99.90
2023-06-23T04:10:31.070Z,99.90
2023-06-23T04:11:34.794Z,99.90
2023-06-23T04:12:37.907Z,99.90
2023-06-23T04:13:41.790Z,99.90
2023-06-23T04:14:47.151Z,99.90
2023-06-23T04:15:50.866Z,99.90
2023-06-23T04:16:55.860Z,99.90
2023-06-23T04:17:59.767Z,99.90
2023-06-23T04:19:03.911Z,99.90
2023-06-23T04:20:08.578Z,99.90
2023-06-23T04:21:12.700Z,99.90
2023-06-23T04:22:18.612Z,99.90
2023-06-23T04:23:21.961Z,99.90
2023-06-23T04:24:24.714Z,99.90
2023-06-23T04:25:27.711Z,99.90
2023-06-23T04:26:29.950Z,99.90
2023-06-23T04:27:35.230Z,99.90
2023-06-23T04:28:37.992Z,99.90
2023-06-23T04:29:42.540Z,99.90
2023-06-23T04:30:52.665Z,99.90
2023-06-23T04:31:56.700Z,99.90
2023-06-23T04:32:59.312Z,99.90
2023-06-23T04:34:01.430Z,99.90
2023-06-23T04:35:04.261Z,99.90
2023-06-23T04:36:17.446Z,99.90
2023-06-23T04:37:32.458Z,99.90
2023-06-23T04:38:38.378Z,99.90
2023-06-23T04:40:00.323Z,99.90
2023-06-23T04:41:08.774Z,99.90
2023-06-23T04:42:17.067Z,99.90
2023-06-23T04:43:32.995Z,99.90
2023-06-23T04:44:41.430Z,99.90
2023-06-23T04:45:54.416Z,99.90
2023-06-23T04:47:00.626Z,99.90
2023-06-23T04:48:04.618Z,99.90
2023-06-23T04:49:11.773Z,99.90
2023-06-23T04:50:16.692Z,99.90
2023-06-23T04:51:20.606Z,99.90
2023-06-23T04:52:24.076Z,99.90
2023-06-23T04:53:35.156Z,99.90
2023-06-23T04:54:42.051Z,99.90
2023-06-23T04:55:46.493Z,99.90
2023-06-23T04:56:52.973Z,99.90
2023-06-23T04:57:56.897Z,99.90
2023-06-23T04:59:01.826Z,99.90
2023-06-23T05:00:08.513Z,99.90
2023-06-23T05:01:13.211Z,99.90
2023-06-23T05:02:16.715Z,99.90
2023-06-23T05:03:21.538Z,99.90
2023-06-23T05:04:24.782Z,99.90
2023-06-23T05:05:29.346Z,99.90
2023-06-23T05:06:34.407Z,99.90
2023-06-23T05:07:37.750Z,99.90
2023-06-23T05:08:41.333Z,99.90
2023-06-23T05:09:46.946Z,99.90
2023-06-23T05:10:49.140Z,99.90
2023-06-23T05:11:54.011Z,99.90
2023-06-23T05:12:57.453Z,99.90
2023-06-23T05:14:00.215Z,99.90
2023-06-23T05:15:03.753Z,99.90
2023-06-23T05:16:11.456Z,99.90
2023-06-23T05:17:15.681Z,99.90
2023-06-23T05:18:20.557Z,99.90
2023-06-23T05:19:23.785Z,99.90
2023-06-23T05:20:28.346Z,99.90
2023-06-23T05:21:32.644Z,99.90
2023-06-23T05:22:37.594Z,99.90
2023-06-23T05:24:55.449Z,99.90
2023-06-23T05:25:58.918Z,99.90
2023-06-23T05:27:03.148Z,99.90
2023-06-23T05:28:06.649Z,99.90
2023-06-23T05:29:13.048Z,99.90
2023-06-23T05:30:18.482Z,99.90
2023-06-23T05:31:22.876Z,99.90
2023-06-23T05:32:28.835Z,99.90
2023-06-23T05:33:34.305Z,99.90
2023-06-23T05:34:37.024Z,99.90
2023-06-23T05:35:43.177Z,99.90
2023-06-23T05:36:47.333Z,99.90
2023-06-23T05:37:50.268Z,99.90
2023-06-23T05:38:55.849Z,99.90
2023-06-23T05:40:02.046Z,99.90
2023-06-23T05:41:04.530Z,99.90
2023-06-23T05:42:06.906Z,99.90
2023-06-23T05:43:08.865Z,99.90
2023-06-23T05:44:10.929Z,99.90
2023-06-23T05:45:13.674Z,99.90
2023-06-23T05:46:17.404Z,99.90
2023-06-23T05:47:24.506Z,99.90
2023-06-23T05:48:35.633Z,99.90
2023-06-23T05:49:45.120Z,99.90
2023-06-23T05:50:51.210Z,99.90
2023-06-23T05:52:00.114Z,99.90
2023-06-23T05:53:08.903Z,99.90
2023-06-23T05:54:12.713Z,99.90
2023-06-23T05:55:15.278Z,99.90
2023-06-23T05:56:24.451Z,99.90
2023-06-23T05:57:32.237Z,99.90
2023-06-23T05:58:41.255Z,99.90
2023-06-23T05:59:46.537Z,99.90
2023-06-23T06:00:54.663Z,99.90
2023-06-23T06:02:01.399Z,99.90
2023-06-23T06:03:07.578Z,99.90
2023-06-23T06:04:14.995Z,99.90
2023-06-23T06:05:19.487Z,99.90
2023-06-23T06:06:24.413Z,99.90
2023-06-23T06:07:28.193Z,99.90
2023-06-23T06:08:30.530Z,99.90
2023-06-23T06:09:34.359Z,99.90
2023-06-23T06:10:38.405Z,99.90
2023-06-23T06:11:43.550Z,99.90
2023-06-23T06:12:49.525Z,99.90
2023-06-23T06:13:53.312Z,99.90
2023-06-23T06:14:58.409Z,99.90
2023-06-23T06:16:01.243Z,99.90
2023-06-23T06:17:04.261Z,99.90
2023-06-23T06:18:08.278Z,99.90
2023-06-23T06:19:11.485Z,99.90
2023-06-23T06:20:15.930Z,99.90
2023-06-23T06:21:18.869Z,99.90
2023-06-23T06:22:21.731Z,99.90
2023-06-23T06:23:25.986Z,99.90
2023-06-23T06:24:29.976Z,99.90
2023-06-23T06:25:35.173Z,99.90
2023-06-23T06:26:37.219Z,99.90
2023-06-23T06:27:40.293Z,99.90
2023-06-23T06:28:44.105Z,99.90
2023-06-23T06:29:47.098Z,99.90
2023-06-23T06:30:50.888Z,99.90
2023-06-23T06:31:54.920Z,99.90
2023-06-23T06:33:02.010Z,99.90
2023-06-23T06:34:06.683Z,99.90
2023-06-23T06:35:11.804Z,99.90
2023-06-23T06:36:15.616Z,99.90
2023-06-23T06:37:19.524Z,99.90
2023-06-23T06:38:22.749Z,99.90
2023-06-23T06:39:25.695Z,99.90
2023-06-23T06:40:39.248Z,99.90
2023-06-23T06:41:42.580Z,99.90
2023-06-23T06:42:44.847Z,99.90
2023-06-23T06:43:50.892Z,99.90
2023-06-23T06:44:53.146Z,99.90
2023-06-23T06:45:55.445Z,99.90
2023-06-23T06:46:58.106Z,99.90
2023-06-23T06:48:01.238Z,99.90
2023-06-23T06:49:04.546Z,99.90
2023-06-23T06:50:08.185Z,99.90
2023-06-23T06:51:12.300Z,99.90
2023-06-23T06:52:15.392Z,99.90
2023-06-23T06:53:19.781Z,99.90
2023-06-23T06:54:21.733Z,99.90
2023-06-23T06:55:24.905Z,99.90
2023-06-23T06:56:27.745Z,99.90
2023-06-23T06:57:30.118Z,99.90
2023-06-23T06:58:32.550Z,99.90
2023-06-23T06:59:37.478Z,99.90
2023-06-23T07:00:39.830Z,99.90
2023-06-23T07:01:43.226Z,99.90
2023-06-23T07:02:46.015Z,99.90
2023-06-23T07:03:49.345Z,99.90
2023-06-23T07:04:53.281Z,99.90
2023-06-23T07:05:55.377Z,99.90
2023-06-23T07:06:57.381Z,99.90
2023-06-23T07:07:59.387Z,99.90
2023-06-23T07:09:01.290Z,99.90
2023-06-23T07:10:03.921Z,99.90
2023-06-23T07:11:06.015Z,99.90
2023-06-23T07:12:08.552Z,99.90
2023-06-23T07:13:10.771Z,99.90
2023-06-23T07:14:12.856Z,99.90
2023-06-23T07:15:15.890Z,99.90
2023-06-23T07:16:17.852Z,99.90
2023-06-23T07:17:20.500Z,99.90
2023-06-23T07:18:25.025Z,99.90
2023-06-23T07:19:26.798Z,99.90
2023-06-23T07:20:28.568Z,99.90
2023-06-23T07:21:30.526Z,99.90
2023-06-23T07:22:34.315Z,99.90
2023-06-23T07:23:38.369Z,99.90
2023-06-23T07:24:41.026Z,99.90
2023-06-23T07:25:42.830Z,99.90
2023-06-23T07:26:44.737Z,99.90
2023-06-23T07:27:49.337Z,99.90
2023-06-23T07:28:51.188Z,99.90
2023-06-23T07:29:53.070Z,99.90
2023-06-23T07:30:55.961Z,99.90
2023-06-23T07:31:58.669Z,99.90
2023-06-23T07:33:00.615Z,99.90
2023-06-23T07:34:02.545Z,99.90
2023-06-23T07:35:04.573Z,99.90
2023-06-23T07:36:06.560Z,99.90
2023-06-23T07:37:11.564Z,99.90
2023-06-23T07:38:13.416Z,99.90
2023-06-23T07:39:15.423Z,99.90
2023-06-23T07:40:17.360Z,99.90
2023-06-23T07:41:19.157Z,99.90
2023-06-23T07:42:21.145Z,99.90
2023-06-23T07:43:23.354Z,99.90
2023-06-23T07:44:25.184Z,99.90
2023-06-23T07:45:27.052Z,99.90
2023-06-23T07:46:29.094Z,99.90
2023-06-23T07:47:31.306Z,99.90
2023-06-23T07:48:33.181Z,99.90
2023-06-23T07:49:35.061Z,99.90
2023-06-23T07:50:36.882Z,99.90
2023-06-23T07:51:38.662Z,99.90
2023-06-23T07:52:40.432Z,99.90
2023-06-23T07:53:46.432Z,99.90
2023-06-23T07:54:53.667Z,99.90
2023-06-23T07:55:55.652Z,99.90
2023-06-23T07:56:58.491Z,99.90
2023-06-23T07:58:00.702Z,99.90
2023-06-23T07:59:02.601Z,99.90
2023-06-23T08:00:05.241Z,99.90
2023-06-23T08:01:07.989Z,99.90
2023-06-23T08:02:12.617Z,99.90
2023-06-23T08:03:15.738Z,99.90
2023-06-23T08:04:17.969Z,99.90
2023-06-23T08:05:20.114Z,99.90
2023-06-23T08:06:24.817Z,99.90
2023-06-23T08:07:26.759Z,99.90
2023-06-23T08:08:28.566Z,99.90
2023-06-23T08:09:30.577Z,99.90
2023-06-23T08:10:32.435Z,99.90
2023-06-23T08:11:34.287Z,99.90
2023-06-23T08:12:37.184Z,99.90
2023-06-23T08:13:39.381Z,99.90
2023-06-23T08:14:41.199Z,99.90
2023-06-23T08:15:43.109Z,99.90
2023-06-23T08:16:44.948Z,99.90
2023-06-23T08:17:48.279Z,99.90
2023-06-23T08:18:52.221Z,99.90
2023-06-23T08:19:54.102Z,99.90
2023-06-23T08:20:56.455Z,99.90
2023-06-23T08:21:58.710Z,99.90
2023-06-23T08:23:00.722Z,99.90
2023-06-23T08:24:03.459Z,99.90
2023-06-23T08:25:05.503Z,99.90
2023-06-23T08:26:07.578Z,99.90
2023-06-23T08:27:09.626Z,99.90
2023-06-23T08:28:11.432Z,99.90
2023-06-23T08:29:13.328Z,99.90
2023-06-23T08:30:17.159Z,99.90
2023-06-23T08:31:19.111Z,99.90
2023-06-23T08:32:20.938Z,99.90
2023-06-23T08:33:22.935Z,99.90
2023-06-23T08:34:24.957Z,99.90
2023-06-23T08:35:27.583Z,99.90
2023-06-23T08:36:29.391Z,99.90
2023-06-23T08:37:32.934Z,99.90
2023-06-23T08:38:35.010Z,99.90
2023-06-23T08:39:36.837Z,99.90
2023-06-23T08:40:38.688Z,99.90
2023-06-23T08:41:44.362Z,99.90
2023-06-23T08:42:46.447Z,99.90
2023-06-23T08:43:49.525Z,99.90
2023-06-23T08:44:53.316Z,99.90
2023-06-23T08:45:59.418Z,99.90
2023-06-23T08:47:07.154Z,99.90
2023-06-23T08:48:12.410Z,99.90
2023-06-23T08:49:16.806Z,99.90
2023-06-23T08:50:19.351Z,99.90
2023-06-23T08:51:21.743Z,99.90
2023-06-23T08:52:24.459Z,99.90
2023-06-23T08:53:27.056Z,99.90
2023-06-23T08:54:29.582Z,99.90
2023-06-23T08:55:33.673Z,99.90
2023-06-23T08:56:35.912Z,99.90
2023-06-23T08:57:39.993Z,99.90
2023-06-23T08:58:42.136Z,99.90
2023-06-23T08:59:44.288Z,99.90
2023-06-23T09:00:47.302Z,99.90
2023-06-23T09:01:49.207Z,99.90
2023-06-23T09:02:51.067Z,99.90
2023-06-23T09:03:52.991Z,99.90
2023-06-23T09:04:54.825Z,99.90
2023-06-23T09:05:56.667Z,99.90
2023-06-23T09:07:00.101Z,99.90
2023-06-23T09:08:02.090Z,99.90
2023-06-23T09:09:04.025Z,99.90
2023-06-23T09:10:07.693Z,99.90
2023-06-23T09:11:09.620Z,99.90
2023-06-23T09:12:11.742Z,99.90
2023-06-23T09:13:28.567Z,99.90
2023-06-23T09:14:31.803Z,99.90
2023-06-23T09:15:41.814Z,99.90
2023-06-23T09:16:55.962Z,99.90
2023-06-23T09:17:58.977Z,99.90
2023-06-23T09:19:03.871Z,99.90
2023-06-23T09:20:06.533Z,99.90
2023-06-23T09:21:10.023Z,99.90
2023-06-23T09:22:13.525Z,99.90
2023-06-23T09:23:16.333Z,99.90
2023-06-23T09:24:18.477Z,99.90
2023-06-23T09:25:39.311Z,99.90
2023-06-23T09:26:44.794Z,99.90
2023-06-23T09:27:46.576Z,99.90
2023-06-23T09:28:50.011Z,99.90
2023-06-23T09:30:01.594Z,99.90
2023-06-23T09:31:19.595Z,99.90
2023-06-23T09:32:30.590Z,99.90
2023-06-23T09:33:33.070Z,99.90
2023-06-23T09:34:35.668Z,99.90
2023-06-23T09:35:37.517Z,99.90
2023-06-23T09:36:39.278Z,99.90
2023-06-23T09:37:41.105Z,99.90
2023-06-23T09:38:43.659Z,99.90
2023-06-23T09:39:49.881Z,99.90
2023-06-23T09:41:20.868Z,99.90
2023-06-23T09:42:25.989Z,99.90
2023-06-23T09:43:27.848Z,99.90
2023-06-23T09:44:34.880Z,99.90
2023-06-23T09:45:36.761Z,99.90
2023-06-23T09:46:38.571Z,99.80
2023-06-23T09:47:41.231Z,99.40
2023-06-23T09:48:45.309Z,99.50
2023-06-23T09:49:50.626Z,99.50
2023-06-23T09:51:03.546Z,99.60
2023-06-23T09:52:07.555Z,99.80
2023-06-23T09:53:10.154Z,99.80
2023-06-23T09:54:11.940Z,99.90
2023-06-23T09:55:14.167Z,99.90
2023-06-23T09:56:23.260Z,99.90
2023-06-23T09:57:25.154Z,99.90
2023-06-23T09:58:41.541Z,99.90
2023-06-23T09:59:45.695Z,99.90
2023-06-23T10:00:47.522Z,99.90
2023-06-23T10:01:50.020Z,99.90
2023-06-23T10:02:52.130Z,99.90
2023-06-23T10:03:56.200Z,99.90
2023-06-23T10:05:05.753Z,99.90
2023-06-23T10:06:07.578Z,99.90
2023-06-23T10:07:26.517Z,99.90
2023-06-23T10:08:28.508Z,99.60
2023-06-23T10:09:30.283Z,99.60
2023-06-23T10:10:33.330Z,99.60
2023-06-23T10:11:36.694Z,99.40
2023-06-23T10:12:41.115Z,99.40
2023-06-23T10:13:44.046Z,99.40
2023-06-23T10:14:46.189Z,99.20
2023-06-23T10:15:48.088Z,99.70
2023-06-23T10:16:57.472Z,99.90
2023-06-23T10:17:59.894Z,99.90
2023-06-23T10:19:01.940Z,99.30
2023-06-23T10:20:05.961Z,99.40
2023-06-23T10:21:08.573Z,99.60
2023-06-23T10:22:11.580Z,99.30
2023-06-23T10:23:14.847Z,99.40
2023-06-23T10:24:19.796Z,99.40
2023-06-23T10:25:22.789Z,99.60
2023-06-23T10:26:25.791Z,99.60
2023-06-23T10:27:30.571Z,99.40
2023-06-23T10:28:33.856Z,99.90
2023-06-23T10:29:42.734Z,99.80
2023-06-23T10:30:44.756Z,99.90
2023-06-23T10:31:47.231Z,99.90
2023-06-23T10:32:55.775Z,99.90
2023-06-23T10:34:04.514Z,99.90
2023-06-23T10:35:10.415Z,99.90
2023-06-23T10:36:18.510Z,99.90
2023-06-23T10:37:31.810Z,99.90
2023-06-23T10:38:44.653Z,99.90
2023-06-23T10:39:52.012Z,99.90
2023-06-23T10:40:57.932Z,99.90
2023-06-23T10:42:01.448Z,99.80
2023-06-23T10:43:04.463Z,99.70
2023-06-23T10:44:06.899Z,99.90
2023-06-23T10:45:09.605Z,99.70
2023-06-23T10:46:12.005Z,99.80
2023-06-23T10:47:13.952Z,99.90
2023-06-23T10:48:16.258Z,99.90
2023-06-23T10:49:21.829Z,99.90
2023-06-23T10:50:27.448Z,99.90
2023-06-23T10:51:29.418Z,99.90
2023-06-23T10:52:31.602Z,99.90
2023-06-23T10:53:35.187Z,99.90
2023-06-23T10:54:37.225Z,99.90
2023-06-23T10:55:58.654Z,99.90
2023-06-23T10:57:11.194Z,99.90
2023-06-23T10:58:17.439Z,99.90
2023-06-23T10:59:23.267Z,99.90
2023-06-23T11:00:32.134Z,99.90
2023-06-23T11:01:55.747Z,99.90
2023-06-23T11:02:58.430Z,99.90
2023-06-23T11:04:02.788Z,99.90
2023-06-23T11:05:05.719Z,99.90
2023-06-23T11:06:10.462Z,99.90
2023-06-23T11:07:15.364Z,99.90
2023-06-23T11:08:17.274Z,99.90
2023-06-23T11:09:59.656Z,99.90
2023-06-23T11:11:03.299Z,99.90
2023-06-23T11:12:28.357Z,99.90
2023-06-23T11:13:51.747Z,99.90
2023-06-23T11:14:53.632Z,99.90
2023-06-23T11:15:59.726Z,99.90
2023-06-23T11:17:02.663Z,99.90
2023-06-23T11:18:09.200Z,99.90
2023-06-23T11:19:11.039Z,99.90
2023-06-23T11:20:25.560Z,99.90
2023-06-23T11:21:45.866Z,99.90
2023-06-23T11:23:07.335Z,99.90
2023-06-23T11:24:18.154Z,99.90
2023-06-23T11:25:42.614Z,99.90
2023-06-23T11:27:01.079Z,99.90
2023-06-23T11:28:29.578Z,99.90
2023-06-23T11:29:35.130Z,99.90
2023-06-23T11:31:15.670Z,99.90
2023-06-23T11:32:21.733Z,99.90
2023-06-23T11:33:38.178Z,99.90
2023-06-23T11:35:02.241Z,99.90
2023-06-23T11:36:07.016Z,99.90
2023-06-23T11:37:09.147Z,99.90
2023-06-23T11:38:13.360Z,99.90
2023-06-23T11:39:15.263Z,99.90
2023-06-23T11:40:20.724Z,99.90
2023-06-23T11:41:26.824Z,99.90
2023-06-23T11:42:29.267Z,99.90
2023-06-23T11:43:42.051Z,99.90
2023-06-23T11:44:44.412Z,99.90
2023-06-23T11:45:50.219Z,99.90
2023-06-23T11:46:53.242Z,99.90
2023-06-23T11:47:55.140Z,99.90
2023-06-23T11:48:56.972Z,99.90
2023-06-23T11:50:01.950Z,99.90
2023-06-23T11:51:09.518Z,99.90
2023-06-23T11:52:14.025Z,99.90
2023-06-23T11:53:16.918Z,99.90
2023-06-23T11:54:18.931Z,99.90
2023-06-23T11:55:21.236Z,99.90
2023-06-23T11:56:23.038Z,99.90
2023-06-23T11:57:25.633Z,99.90
2023-06-23T11:58:34.760Z,99.90
2023-06-23T11:59:40.498Z,99.90
2023-06-23T12:00:42.311Z,99.90
2023-06-23T12:01:44.106Z,99.90
2023-06-23T12:02:46.911Z,99.90
2023-06-23T12:03:49.800Z,99.90
2023-06-23T12:04:51.679Z,99.90
2023-06-23T12:05:53.934Z,99.90
2023-06-23T12:06:55.981Z,99.90
2023-06-23T12:07:57.862Z,99.90
2023-06-23T12:08:59.711Z,99.90
2023-06-23T12:10:02.233Z,99.90
2023-06-23T12:11:04.323Z,99.90
2023-06-23T12:12:09.400Z,99.90
2023-06-23T12:13:17.456Z,99.90
2023-06-23T12:14:19.328Z,99.90
2023-06-23T12:15:23.484Z,99.90
2023-06-23T12:16:25.312Z,99.90
2023-06-23T12:17:27.221Z,99.90
2023-06-23T12:18:29.022Z,99.90
2023-06-23T12:19:33.270Z,99.90
2023-06-23T12:20:40.144Z,99.90
2023-06-23T12:21:42.649Z,99.90
2023-06-23T12:22:44.495Z,99.90
2023-06-23T12:23:46.790Z,99.90
2023-06-23T12:24:48.632Z,99.90
2023-06-23T12:25:53.704Z,99.90
2023-06-23T12:26:55.547Z,99.90
2023-06-23T12:27:57.887Z,99.90
2023-06-23T12:29:10.721Z,99.90
2023-06-23T12:30:19.869Z,99.90
2023-06-23T12:31:31.244Z,99.90
2023-06-23T12:32:34.277Z,99.90
2023-06-23T12:33:40.242Z,99.90
2023-06-23T12:34:50.189Z,99.90
2023-06-23T12:35:58.921Z,99.90
2023-06-23T12:37:05.384Z,99.90
2023-06-23T12:38:10.626Z,99.90
2023-06-23T12:39:16.862Z,99.90
2023-06-23T12:40:32.422Z,99.90
2023-06-23T12:41:34.290Z,99.90
2023-06-23T12:42:38.111Z,99.90
2023-06-23T12:43:40.211Z,99.90
2023-06-23T12:44:42.043Z,99.90
2023-06-23T12:45:43.900Z,99.90
2023-06-23T12:46:49.287Z,99.90
2023-06-23T12:47:54.297Z,99.90
2023-06-23T12:48:56.511Z,99.90
2023-06-23T12:50:07.407Z,99.90
2023-06-23T12:51:09.557Z,99.90
2023-06-23T12:52:12.864Z,99.90
2023-06-23T12:53:14.932Z,99.90
2023-06-23T12:54:17.384Z,99.90
2023-06-23T12:55:19.331Z,99.90
2023-06-23T12:56:21.298Z,99.90
2023-06-23T12:57:23.124Z,99.90
2023-06-23T12:58:25.840Z,99.90
2023-06-23T12:59:29.304Z,99.90
2023-06-23T13:00:31.187Z,99.90
2023-06-23T13:01:33.115Z,99.90
2023-06-23T13:02:35.176Z,99.90
2023-06-23T13:03:37.188Z,99.90
2023-06-23T13:04:39.086Z,99.90
2023-06-23T13:05:42.091Z,99.90
2023-06-23T13:06:43.946Z,99.90
2023-06-23T13:07:45.817Z,99.90
2023-06-23T13:08:51.702Z,99.90
2023-06-23T13:09:53.546Z,99.90
2023-06-23T13:10:55.378Z,99.90
2023-06-23T13:11:57.169Z,99.90
2023-06-23T13:12:58.981Z,99.90
2023-06-23T13:14:00.832Z,99.90
2023-06-23T13:15:04.558Z,99.90
2023-06-23T13:16:06.734Z,99.90
2023-06-23T13:17:08.541Z,99.90
2023-06-23T13:18:10.741Z,99.90
2023-06-23T13:19:13.881Z,99.90
2023-06-23T13:20:15.790Z,99.90
2023-06-23T13:21:17.655Z,99.90
2023-06-23T13:22:19.459Z,99.90
2023-06-23T13:23:21.248Z,99.90
2023-06-23T13:24:23.050Z,99.90
2023-06-23T13:25:25.123Z,99.90
2023-06-23T13:26:26.908Z,99.90
2023-06-23T13:27:28.734Z,99.90
2023-06-23T13:28:31.186Z,99.90
2023-06-23T13:29:32.976Z,99.90
2023-06-23T13:30:34.754Z,99.90
2023-06-23T13:31:36.646Z,99.90
2023-06-23T13:32:41.764Z,99.90
2023-06-23T13:33:45.518Z,99.90
2023-06-23T13:34:47.415Z,99.90
2023-06-23T13:35:49.431Z,99.90
2023-06-23T13:36:51.284Z,99.90
2023-06-23T13:37:55.615Z,99.90
2023-06-23T13:38:57.733Z,99.90
2023-06-23T13:40:01.212Z,99.90
2023-06-23T13:41:04.913Z,99.90
2023-06-23T13:42:07.068Z,99.90
2023-06-23T13:43:08.847Z,99.90
2023-06-23T13:44:10.777Z,99.90
2023-06-23T13:45:13.370Z,99.90
2023-06-23T13:46:15.714Z,99.90
2023-06-23T13:47:17.525Z,99.90
2023-06-23T13:48:20.116Z,99.90
2023-06-23T13:49:21.912Z,99.90
2023-06-23T13:50:23.811Z,99.90
2023-06-23T13:51:25.608Z,99.90
2023-06-23T13:52:27.449Z,99.90
2023-06-23T13:53:29.224Z,99.90
2023-06-23T13:54:31.062Z,99.90
2023-06-23T13:55:33.076Z,99.90
2023-06-23T13:56:35.591Z,99.90
2023-06-23T13:57:38.674Z,99.90
2023-06-23T13:58:40.565Z,99.90